createdAt,value
2022-09-05T00:00:02.849Z,76.38
2022-09-05T00:02:48.293Z,75.83
2022-09-05T00:05:55.489Z,75.98
2022-09-05T00:08:42.720Z,77.81
2022-09-05T00:11:41.707Z,79.17
2022-09-05T00:15:17.087Z,78.19
2022-09-05T00:18:45.491Z,77.80
2022-09-05T00:24:27.971Z,77.84
2022-09-05T00:24:37.160Z,77.42
2022-09-05T00:26:51.991Z,76.24
2022-09-05T00:30:00.050Z,76.48
2022-09-05T00:32:31.307Z,77.89
2022-09-05T00:35:13.059Z,77.29
2022-09-05T00:37:49.058Z,77.68
2022-09-05T00:40:28.586Z,77.23
2022-09-05T00:43:02.235Z,77.76
2022-09-05T00:45:38.123Z,78.31
2022-09-05T00:48:23.999Z,77.95
2022-09-05T00:51:21.128Z,77.53
2022-09-05T00:54:40.459Z,78.20
2022-09-05T00:57:45.452Z,78.54
2022-09-05T01:00:18.720Z,80.86
2022-09-05T01:03:09.908Z,78.49
2022-09-05T01:06:03.060Z,78.37
2022-09-05T01:09:08.153Z,79.43
2022-09-05T01:11:52.948Z,79.28
2022-09-05T01:14:47.631Z,79.79
2022-09-05T01:17:38.288Z,79.49
2022-09-05T01:20:31.412Z,79.34
2022-09-05T01:23:35.560Z,80.29
2022-09-05T01:26:18.940Z,81.41
2022-09-05T01:29:16.063Z,83.01
2022-09-05T01:32:01.561Z,83.20
2022-09-05T01:34:41.804Z,81.66
2022-09-05T01:37:33.785Z,81.23
2022-09-05T01:40:17.308Z,80.64
2022-09-05T01:43:03.977Z,81.02
2022-09-05T01:45:50.678Z,79.71
2022-09-05T01:48:33.055Z,79.99
2022-09-05T01:51:29.001Z,79.00
2022-09-05T01:54:23.724Z,78.48
2022-09-05T01:57:09.268Z,78.77
2022-09-05T01:59:48.817Z,78.37
2022-09-05T02:02:39.680Z,78.16
2022-09-05T02:05:29.050Z,77.46
2022-09-05T02:08:24.608Z,78.70
2022-09-05T02:11:06.517Z,78.81
2022-09-05T02:14:01.673Z,78.24
2022-09-05T02:16:45.052Z,78.20
2022-09-05T02:19:25.321Z,78.65
2022-09-05T02:22:04.646Z,78.51
2022-09-05T02:24:39.794Z,77.72
2022-09-05T02:27:38.881Z,78.75
2022-09-05T02:30:21.171Z,79.84
2022-09-05T02:33:00.063Z,79.71
2022-09-05T02:35:42.223Z,79.17
2022-09-05T02:38:47.145Z,79.09
2022-09-05T02:45:08.055Z,80.41
2022-09-05T02:45:14.211Z,80.64
2022-09-05T02:47:07.172Z,80.52
2022-09-05T02:52:03.873Z,80.19
2022-09-05T02:57:25.701Z,81.66
2022-09-05T02:57:35.240Z,80.62
2022-09-05T02:59:09.104Z,80.55
2022-09-05T03:01:57.728Z,79.80
2022-09-05T03:04:34.916Z,80.36
2022-09-05T03:07:22.767Z,81.11
2022-09-05T03:10:47.130Z,80.38
2022-09-05T03:14:01.788Z,81.44
2022-09-05T03:17:01.420Z,82.44
2022-09-05T03:20:04.658Z,82.69
2022-09-05T03:23:06.687Z,83.24
2022-09-05T03:26:27.177Z,83.28
2022-09-05T03:29:32.745Z,82.95
2022-09-05T03:32:40.341Z,82.92
2022-09-05T03:35:47.869Z,83.55
2022-09-05T03:38:51.258Z,83.17
2022-09-05T03:41:44.968Z,84.42
2022-09-05T03:44:35.278Z,83.15
2022-09-05T03:47:35.978Z,82.65
2022-09-05T03:56:56.916Z,82.13
2022-09-05T03:57:18.763Z,82.07
2022-09-05T03:57:38.599Z,81.97
2022-09-05T04:00:23.656Z,84.51
2022-09-05T04:08:06.829Z,84.26
2022-09-05T04:08:20.390Z,84.89
2022-09-05T04:09:10.732Z,84.46
2022-09-05T04:11:44.638Z,84.07
2022-09-05T04:14:24.128Z,83.37
2022-09-05T04:17:00.568Z,84.12
2022-09-05T04:19:37.272Z,84.40
2022-09-05T04:22:24.281Z,83.25
2022-09-05T04:25:04.472Z,84.92
2022-09-05T04:27:43.727Z,84.26
2022-09-05T04:30:38.901Z,82.41
2022-09-05T04:33:36.675Z,83.01
2022-09-05T04:36:21.505Z,83.84
2022-09-05T04:39:10.829Z,83.65
2022-09-05T04:41:46.236Z,82.85
2022-09-05T04:44:20.354Z,82.42
2022-09-05T04:46:53.868Z,82.88
2022-09-05T04:49:30.797Z,84.64
2022-09-05T04:52:31.634Z,83.73
2022-09-05T04:55:09.174Z,82.37
2022-09-05T04:57:45.208Z,82.95
2022-09-05T05:06:00.244Z,82.38
2022-09-05T05:06:16.109Z,83.48
2022-09-05T05:06:43.823Z,82.02
2022-09-05T05:09:09.321Z,83.34
2022-09-05T05:18:01.692Z,83.00
2022-09-05T05:18:06.384Z,83.32
2022-09-05T05:18:15.781Z,83.76
2022-09-05T05:20:42.969Z,83.02
2022-09-05T05:23:18.733Z,83.70
2022-09-05T05:25:54.316Z,82.78
2022-09-05T05:28:32.217Z,82.72
2022-09-05T05:31:14.186Z,82.18
2022-09-05T05:33:47.850Z,83.04
2022-09-05T05:36:23.608Z,83.07
2022-09-05T05:39:04.027Z,82.34
2022-09-05T05:41:43.034Z,81.87
2022-09-05T05:44:16.225Z,82.99
2022-09-05T05:46:49.843Z,82.79
2022-09-05T05:49:37.221Z,82.50
2022-09-05T05:52:29.784Z,81.69
2022-09-05T05:55:51.557Z,81.79
2022-09-05T05:58:17.988Z,81.88
2022-09-05T06:01:37.320Z,82.60
2022-09-05T06:04:28.149Z,81.81
2022-09-05T06:07:09.815Z,82.46
2022-09-05T06:12:40.114Z,81.87
2022-09-05T06:14:57.994Z,82.08
2022-09-05T06:17:07.242Z,81.98
2022-09-05T06:22:04.398Z,80.55
2022-09-05T06:23:34.801Z,81.47
2022-09-05T06:26:32.464Z,81.31
2022-09-05T06:29:12.803Z,81.50
2022-09-05T06:32:09.462Z,81.61
2022-09-05T06:35:19.696Z,81.66
2022-09-05T06:37:59.554Z,81.44
2022-09-05T06:40:34.550Z,80.87
2022-09-05T06:43:31.407Z,78.63
2022-09-05T06:46:55.187Z,76.06
2022-09-05T06:49:30.918Z,73.73
2022-09-05T06:52:39.040Z,71.93
2022-09-05T06:55:33.607Z,70.10
2022-09-05T06:58:57.394Z,69.64
2022-09-05T07:01:55.204Z,68.65
2022-09-05T07:05:36.926Z,68.46
2022-09-05T07:07:30.926Z,67.12
2022-09-05T07:10:22.197Z,66.25
2022-09-05T07:13:00.309Z,66.22
2022-09-05T07:15:43.952Z,66.69
2022-09-05T07:18:22.266Z,67.47
2022-09-05T07:21:16.001Z,68.06
2022-09-05T07:24:08.848Z,67.77
2022-09-05T07:26:52.491Z,66.28
2022-09-05T07:29:30.936Z,64.93
2022-09-05T07:32:06.563Z,64.14
2022-09-05T07:34:38.048Z,63.82
2022-09-05T07:37:15.585Z,64.29
2022-09-05T07:39:51.278Z,62.78
2022-09-05T07:42:27.243Z,62.94
2022-09-05T07:44:59.718Z,61.35
2022-09-05T07:47:34.305Z,60.81
2022-09-05T07:51:59.166Z,58.57
2022-09-05T07:56:54.204Z,57.98
2022-09-05T07:56:59.937Z,58.80
2022-09-05T07:58:52.228Z,58.48
2022-09-05T08:01:24.141Z,57.89
2022-09-05T08:04:05.615Z,56.65
2022-09-05T08:07:34.750Z,56.39
2022-09-05T08:10:06.836Z,58.58
2022-09-05T08:12:28.027Z,57.23
2022-09-05T08:15:14.179Z,56.52
2022-09-05T08:17:58.711Z,56.10
2022-09-05T08:20:37.008Z,55.67
2022-09-05T08:23:13.808Z,56.40
2022-09-05T08:25:57.276Z,56.61
2022-09-05T08:28:39.212Z,56.35
2022-09-05T08:31:14.479Z,54.83
2022-09-05T08:33:46.414Z,53.99
2022-09-05T08:36:28.997Z,53.27
2022-09-05T08:39:02.297Z,54.53
2022-09-05T08:41:49.284Z,52.99
2022-09-05T08:46:42.970Z,52.04
2022-09-05T08:47:26.368Z,52.10
2022-09-05T08:50:26.952Z,52.64
2022-09-05T08:53:45.707Z,51.70
2022-09-05T08:56:12.286Z,51.34
2022-09-05T08:59:31.498Z,52.06
2022-09-05T09:02:45.373Z,53.11
2022-09-05T09:05:22.687Z,54.56
2022-09-05T09:08:01.219Z,50.84
2022-09-05T09:10:46.770Z,49.43
2022-09-05T09:13:30.514Z,50.59
2022-09-05T09:16:08.185Z,51.54
2022-09-05T09:19:00.811Z,50.19
2022-09-05T09:21:41.496Z,49.62
2022-09-05T09:24:25.234Z,50.12
2022-09-05T09:27:03.241Z,49.79
2022-09-05T09:29:39.340Z,50.21
2022-09-05T09:32:13.466Z,48.41
2022-09-05T09:34:55.564Z,48.84
2022-09-05T09:37:59.779Z,50.18
2022-09-05T09:41:11.235Z,50.24
2022-09-05T09:44:09.375Z,49.66
2022-09-05T09:46:45.580Z,49.28
2022-09-05T09:49:36.175Z,49.33
2022-09-05T09:52:53.055Z,49.07
2022-09-05T09:55:52.203Z,47.21
2022-09-05T09:58:41.212Z,46.78
2022-09-05T10:01:36.569Z,45.81
2022-09-05T10:09:53.866Z,46.14
2022-09-05T10:10:53.747Z,45.23
2022-09-05T10:11:52.152Z,45.10
2022-09-05T10:14:49.931Z,44.60
2022-09-05T10:17:44.495Z,44.49
2022-09-05T10:20:29.730Z,44.17
2022-09-05T10:23:18.583Z,43.50
2022-09-05T10:26:18.847Z,42.87
2022-09-05T10:29:30.222Z,42.67
2022-09-05T10:35:09.625Z,41.37
2022-09-05T10:35:12.998Z,42.30
2022-09-05T10:37:51.701Z,41.26
2022-09-05T10:40:24.479Z,40.85
2022-09-05T10:43:00.205Z,40.82
2022-09-05T10:45:38.562Z,39.16
2022-09-05T10:48:18.224Z,40.96
2022-09-05T10:51:01.366Z,40.37
2022-09-05T10:53:44.751Z,41.60
2022-09-05T10:56:18.714Z,40.69
2022-09-05T11:01:17.792Z,39.13
2022-09-05T11:02:27.904Z,38.43
2022-09-05T11:04:55.740Z,38.60
2022-09-05T11:07:41.912Z,37.40
2022-09-05T11:10:17.760Z,36.40
2022-09-05T11:13:14.462Z,36.75
2022-09-05T11:16:04.954Z,36.93
2022-09-05T11:18:56.940Z,35.75
2022-09-05T11:21:43.264Z,35.45
2022-09-05T11:24:30.867Z,34.54
2022-09-05T11:27:25.305Z,34.98
2022-09-05T11:29:58.432Z,36.99
2022-09-05T11:39:45.900Z,34.95
2022-09-05T11:39:51.543Z,34.97
2022-09-05T11:40:02.702Z,34.62
2022-09-05T11:42:16.447Z,34.48
2022-09-05T11:45:02.153Z,35.11
2022-09-05T11:48:04.631Z,34.14
2022-09-05T11:50:59.405Z,34.53
2022-09-05T11:53:58.302Z,34.64
2022-09-05T11:57:15.674Z,33.79
2022-09-05T12:00:34.004Z,32.79
2022-09-05T12:03:57.250Z,32.63
2022-09-05T12:07:26.874Z,31.67
2022-09-05T12:10:45.779Z,32.25
2022-09-05T12:13:32.318Z,33.07
2022-09-05T12:16:26.572Z,32.45
2022-09-05T12:19:19.505Z,33.84
2022-09-05T12:22:08.780Z,31.38
2022-09-05T12:25:23.598Z,31.41
2022-09-05T12:27:46.133Z,31.73
2022-09-05T12:30:26.316Z,32.63
2022-09-05T12:36:05.731Z,33.71
2022-09-05T12:40:53.413Z,33.81
2022-09-05T12:41:34.467Z,32.69
2022-09-05T12:42:40.587Z,30.48
2022-09-05T12:45:32.959Z,30.95
2022-09-05T12:48:14.484Z,31.56
2022-09-05T12:50:57.163Z,31.36
2022-09-05T12:53:34.428Z,31.11
2022-09-05T12:56:45.946Z,30.73
2022-09-05T13:02:59.073Z,31.36
2022-09-05T13:03:03.635Z,32.10
2022-09-05T13:04:59.705Z,32.41
2022-09-05T13:07:42.967Z,32.83
2022-09-05T13:14:31.350Z,33.13
2022-09-05T13:14:54.907Z,32.58
2022-09-05T13:16:13.438Z,31.63
2022-09-05T13:18:57.236Z,31.94
2022-09-05T13:21:29.988Z,32.57
2022-09-05T13:24:12.445Z,31.29
2022-09-05T13:26:48.040Z,31.81
2022-09-05T13:29:21.274Z,31.73
2022-09-05T13:37:55.248Z,31.48
2022-09-05T13:38:20.159Z,31.44
2022-09-05T13:38:37.785Z,31.73
2022-09-05T13:41:01.334Z,33.24
2022-09-05T13:43:38.500Z,32.05
2022-09-05T13:46:17.305Z,33.41
2022-09-05T13:51:46.877Z,33.20
2022-09-05T13:54:39.443Z,33.84
2022-09-05T13:57:31.856Z,33.70
2022-09-05T14:00:31.986Z,32.93
2022-09-05T14:03:39.307Z,32.75
2022-09-05T14:06:46.174Z,33.44
2022-09-05T14:09:37.232Z,34.37
2022-09-05T14:12:15.330Z,33.68
2022-09-05T14:15:10.399Z,33.36
2022-09-05T14:17:58.667Z,33.59
2022-09-05T14:20:44.123Z,34.13
2022-09-05T14:23:21.946Z,35.23
2022-09-05T14:25:56.641Z,34.56
2022-09-05T14:28:33.008Z,34.97
2022-09-05T14:35:00.732Z,34.27
2022-09-05T14:37:46.747Z,34.45
2022-09-05T14:37:53.459Z,33.23
2022-09-05T14:41:05.913Z,34.15
2022-09-05T14:44:06.030Z,32.82
2022-09-05T14:46:56.719Z,33.79
2022-09-05T14:50:04.219Z,35.11
2022-09-05T14:52:43.419Z,33.79
2022-09-05T14:55:20.570Z,35.18
2022-09-05T15:02:41.910Z,34.92
2022-09-05T15:02:49.860Z,34.52
2022-09-05T15:06:42.741Z,35.08
2022-09-05T15:12:15.232Z,34.53
2022-09-05T15:12:31.333Z,33.57
2022-09-05T15:15:18.259Z,34.97
2022-09-05T15:17:51.638Z,33.71
2022-09-05T15:20:40.257Z,34.04
2022-09-05T15:23:16.725Z,34.46
2022-09-05T15:25:49.575Z,34.43
2022-09-05T15:28:24.121Z,34.65
2022-09-05T15:31:02.666Z,35.03
2022-09-05T15:33:33.568Z,35.68
2022-09-05T15:36:07.815Z,35.36
2022-09-05T15:38:54.395Z,34.63
2022-09-05T15:41:26.758Z,35.14
2022-09-05T15:44:01.375Z,35.88
2022-09-05T15:46:49.452Z,35.99
2022-09-05T15:49:38.013Z,35.52
2022-09-05T15:52:30.132Z,35.83
2022-09-05T15:55:06.229Z,35.67
2022-09-05T15:57:40.469Z,35.82
2022-09-05T16:00:12.470Z,35.70
2022-09-05T16:02:50.036Z,36.77
2022-09-05T16:10:31.699Z,35.99
2022-09-05T16:10:46.155Z,36.35
2022-09-05T16:12:06.281Z,36.01
2022-09-05T16:14:26.026Z,37.01
2022-09-05T16:23:14.934Z,36.97
2022-09-05T16:23:32.025Z,37.51
2022-09-05T16:23:35.079Z,37.37
2022-09-05T16:25:45.283Z,38.10
2022-09-05T16:28:19.428Z,38.35
2022-09-05T16:30:50.938Z,38.64
2022-09-05T16:33:30.709Z,37.59
2022-09-05T16:36:04.238Z,38.42
2022-09-05T16:38:49.947Z,38.74
2022-09-05T16:41:29.962Z,39.27
2022-09-05T16:44:07.421Z,38.85
2022-09-05T16:46:42.267Z,39.03
2022-09-05T16:49:18.663Z,37.78
2022-09-05T16:52:17.014Z,39.90
2022-09-05T16:54:53.405Z,41.64
2022-09-05T16:57:30.023Z,42.67
2022-09-05T17:00:00.627Z,43.47
2022-09-05T17:02:32.120Z,43.58
2022-09-05T17:05:12.907Z,44.22
2022-09-05T17:08:10.683Z,44.40
2022-09-05T17:10:57.785Z,44.84
2022-09-05T17:13:53.383Z,45.37
2022-09-05T17:16:31.390Z,44.89
2022-09-05T17:19:04.016Z,45.69
2022-09-05T17:24:56.755Z,44.75
2022-09-05T17:29:18.930Z,49.29
2022-09-05T17:29:45.582Z,52.12
2022-09-05T17:31:48.868Z,52.74
2022-09-05T17:33:19.542Z,54.72
2022-09-05T17:36:06.762Z,53.30
2022-09-05T17:38:52.936Z,48.12
2022-09-05T17:41:45.627Z,46.47
2022-09-05T17:44:24.837Z,46.30
2022-09-05T17:47:20.579Z,47.84
2022-09-05T17:50:14.812Z,47.42
2022-09-05T17:53:25.706Z,48.94
2022-09-05T17:56:15.222Z,50.79
2022-09-05T17:59:04.340Z,51.44
2022-09-05T18:01:35.035Z,52.39
2022-09-05T18:04:16.917Z,52.48
2022-09-05T18:07:00.179Z,52.55
2022-09-05T18:13:12.495Z,54.10
2022-09-05T18:16:12.451Z,53.92
2022-09-05T18:19:28.466Z,54.14
2022-09-05T18:21:54.305Z,54.76
2022-09-05T18:24:35.104Z,55.43
2022-09-05T18:27:36.519Z,55.43
2022-09-05T18:30:13.923Z,55.56
2022-09-05T18:32:53.372Z,55.33
2022-09-05T18:35:37.739Z,55.80
2022-09-05T18:38:51.378Z,55.91
2022-09-05T18:41:25.469Z,57.72
2022-09-05T18:44:12.360Z,57.21
2022-09-05T18:46:47.809Z,57.82
2022-09-05T18:50:23.898Z,57.59
2022-09-05T18:52:23.748Z,57.56
2022-09-05T18:56:10.574Z,57.88
2022-09-05T18:57:57.822Z,58.26
2022-09-05T19:00:44.552Z,58.37
2022-09-05T19:03:24.977Z,58.75
2022-09-05T19:06:36.144Z,58.70
2022-09-05T19:08:56.191Z,59.51
2022-09-05T19:11:33.649Z,59.54
2022-09-05T19:14:26.175Z,60.12
2022-09-05T19:17:07.692Z,60.72
2022-09-05T19:20:31.444Z,60.81
2022-09-05T19:23:11.272Z,61.58
2022-09-05T19:25:45.273Z,61.30
2022-09-05T19:36:49.226Z,60.95
2022-09-05T19:36:57.701Z,61.05
2022-09-05T19:37:23.871Z,61.27
2022-09-05T19:37:29.553Z,60.50
2022-09-05T19:44:11.115Z,61.27
2022-09-05T19:47:27.577Z,61.92
2022-09-05T19:47:48.753Z,62.36
2022-09-05T19:48:35.187Z,62.13
2022-09-05T19:51:16.171Z,62.00
2022-09-05T19:54:04.947Z,60.15
2022-09-05T19:56:39.057Z,59.16
2022-09-05T19:59:19.625Z,59.58
2022-09-05T20:01:53.346Z,60.12
2022-09-05T20:04:26.578Z,61.16
2022-09-05T20:06:56.468Z,61.28
2022-09-05T20:09:27.754Z,61.31
2022-09-05T20:11:59.995Z,62.61
2022-09-05T20:14:31.727Z,59.53
2022-09-05T20:17:22.331Z,60.24
2022-09-05T20:20:05.544Z,60.18
2022-09-05T20:22:49.358Z,58.52
2022-09-05T20:25:35.149Z,57.87
2022-09-05T20:28:10.222Z,58.05
2022-09-05T20:30:44.451Z,57.61
2022-09-05T20:33:22.486Z,58.29
2022-09-05T20:43:10.102Z,58.11
2022-09-05T20:43:17.746Z,58.56
2022-09-05T20:43:26.811Z,58.69
2022-09-05T20:44:41.618Z,58.84
2022-09-05T20:54:12.528Z,59.00
2022-09-05T20:54:20.538Z,59.50
2022-09-05T20:54:28.947Z,59.46
2022-09-05T20:56:06.560Z,59.44
2022-09-05T20:58:38.247Z,59.67
2022-09-05T21:01:21.717Z,59.62
2022-09-05T21:03:58.148Z,59.85
2022-09-05T21:06:33.724Z,60.24
2022-09-05T21:09:24.609Z,60.19
2022-09-05T21:11:58.830Z,60.32
2022-09-05T21:14:31.927Z,59.83
2022-09-05T21:17:13.352Z,60.16
2022-09-05T21:19:53.233Z,59.90
2022-09-05T21:22:39.414Z,60.36
2022-09-05T21:25:43.844Z,60.61
2022-09-05T21:28:32.616Z,61.21
2022-09-05T21:31:15.796Z,61.57
2022-09-05T21:33:47.237Z,61.46
2022-09-05T21:36:19.440Z,61.28
2022-09-05T21:38:51.850Z,61.47
2022-09-05T21:41:21.587Z,61.44
2022-09-05T21:47:35.654Z,61.95
2022-09-05T21:47:48.802Z,62.17
2022-09-05T21:49:35.287Z,62.19
2022-09-05T21:52:07.357Z,61.78
2022-09-05T21:59:19.801Z,62.15
2022-09-05T21:59:26.137Z,61.89
2022-09-05T22:00:26.419Z,61.94
2022-09-05T22:02:56.385Z,61.85
2022-09-05T22:05:26.362Z,61.84
2022-09-05T22:07:56.398Z,62.01
2022-09-05T22:10:40.009Z,62.13
2022-09-05T22:13:20.378Z,62.08
2022-09-05T22:15:50.087Z,62.41
2022-09-05T22:18:19.856Z,62.98
2022-09-05T22:21:33.278Z,62.40
2022-09-05T22:23:47.134Z,62.77
2022-09-05T22:26:21.485Z,62.72
2022-09-05T22:28:51.653Z,63.22
2022-09-05T22:31:22.261Z,63.49
2022-09-05T22:33:52.120Z,63.38
2022-09-05T22:36:21.897Z,63.41
2022-09-05T22:38:51.624Z,63.23
2022-09-05T22:41:28.113Z,63.46
2022-09-05T22:44:01.185Z,63.71
2022-09-05T22:46:31.211Z,63.59
2022-09-05T22:49:00.969Z,63.71
2022-09-05T22:51:30.699Z,64.10
2022-09-05T22:54:00.398Z,63.65
2022-09-05T22:56:37.587Z,64.13
2022-09-05T23:01:44.524Z,64.58
2022-09-05T23:04:14.348Z,64.42
2022-09-05T23:06:44.210Z,65.19
2022-09-05T23:09:13.957Z,64.70
2022-09-05T23:11:46.310Z,64.30
2022-09-05T23:14:16.009Z,64.49
2022-09-05T23:16:45.876Z,64.22
2022-09-05T23:19:15.551Z,64.62
2022-09-05T23:21:45.266Z,65.17
2022-09-05T23:24:14.963Z,65.10
2022-09-05T23:26:47.293Z,65.09
2022-09-05T23:29:17.101Z,65.21
2022-09-05T23:31:46.762Z,65.55
2022-09-05T23:34:16.462Z,65.12
2022-09-05T23:36:46.218Z,65.33
2022-09-05T23:39:15.904Z,65.40
2022-09-05T23:41:48.176Z,65.42
2022-09-05T23:44:17.853Z,65.81
2022-09-05T23:46:47.563Z,66.15
2022-09-05T23:49:17.318Z,66.01
2022-09-05T23:51:47.322Z,66.41
2022-09-05T23:54:17.052Z,66.20
2022-09-05T23:56:49.432Z,67.41
2022-09-05T23:59:19.165Z,67.31
